Bala, Canada
Current Conditions -  °F | °C
As of 10:00 AM on Saturday 25 Oct 2014 (Local Time) from CYQA Reporting Station
Overcast Overcast  
Wind Chill: 52°   Ceiling: 7500
Heat Index: 52°   Visibility: 9mi
Dew Point: 46°   Wind: 12mph
Humidity: 82%   Direction: 170°S
Pressure: 29.61"   Gusts: NA
Location:  45.02°N, 79.61°W
Report Text: CYQA 251400Z AUTO 17010KT 9SM FEW060 BKN075 BKN093 OVC110 11/08 A2961 RMK PRESFR SLP033 DENSITY ALT 1000FT
Loading
Personal Weather Stations






























Interactive Weather Map
Tropical Storm Tracking
New forecast layout! Learn more

10-Day Weather Forecast

Advertisements
Track Severe Weather on mobile